sensor_id;sensor_type;location;lat;lon;timestamp;P1;durP1;ratioP1;P2;durP2;ratioP2
67717;SDS011;54511;47.532;19.180;2022-10-24T00:01:29;6.30;;;2.62;;
67717;SDS011;54511;47.532;19.180;2022-10-24T00:03:57;4.40;;;2.70;;
67717;SDS011;54511;47.532;19.180;2022-10-24T00:06:25;4.15;;;2.85;;
67717;SDS011;54511;47.532;19.180;2022-10-24T00:08:52;4.00;;;2.87;;
67717;SDS011;54511;47.532;19.180;2022-10-24T00:11:19;3.37;;;2.03;;
67717;SDS011;54511;47.532;19.180;2022-10-24T00:13:47;4.12;;;1.98;;
67717;SDS011;54511;47.532;19.180;2022-10-24T00:16:15;7.60;;;2.45;;
67717;SDS011;54511;47.532;19.180;2022-10-24T00:18:42;4.35;;;2.30;;
67717;SDS011;54511;47.532;19.180;2022-10-24T00:21:10;4.25;;;2.42;;
67717;SDS011;54511;47.532;19.180;2022-10-24T00:23:39;7.78;;;3.85;;
67717;SDS011;54511;47.532;19.180;2022-10-24T00:26:06;2.62;;;2.22;;
67717;SDS011;54511;47.532;19.180;2022-10-24T00:28:34;5.10;;;2.78;;
67717;SDS011;54511;47.532;19.180;2022-10-24T00:31:02;4.00;;;2.30;;
67717;SDS011;54511;47.532;19.180;2022-10-24T00:33:29;2.53;;;2.22;;
67717;SDS011;54511;47.532;19.180;2022-10-24T00:35:56;6.93;;;3.50;;
67717;SDS011;54511;47.532;19.180;2022-10-24T00:38:23;4.47;;;2.22;;
67717;SDS011;54511;47.532;19.180;2022-10-24T00:40:52;3.53;;;1.98;;
67717;SDS011;54511;47.532;19.180;2022-10-24T00:43:20;4.10;;;2.22;;
67717;SDS011;54511;47.532;19.180;2022-10-24T00:45:51;4.77;;;2.67;;
67717;SDS011;54511;47.532;19.180;2022-10-24T00:48:21;5.68;;;3.28;;
67717;SDS011;54511;47.532;19.180;2022-10-24T00:50:50;3.83;;;2.62;;
67717;SDS011;54511;47.532;19.180;2022-10-24T00:53:19;6.10;;;1.90;;
67717;SDS011;54511;47.532;19.180;2022-10-24T00:55:47;6.62;;;2.53;;
67717;SDS011;54511;47.532;19.180;2022-10-24T00:58:17;3.97;;;2.05;;
67717;SDS011;54511;47.532;19.180;2022-10-24T01:00:47;4.12;;;2.15;;
67717;SDS011;54511;47.532;19.180;2022-10-24T01:03:14;4.72;;;2.95;;
67717;SDS011;54511;47.532;19.180;2022-10-24T01:05:43;5.12;;;2.90;;
67717;SDS011;54511;47.532;19.180;2022-10-24T01:08:20;2.55;;;1.95;;
67717;SDS011;54511;47.532;19.180;2022-10-24T01:10:53;5.87;;;2.62;;
67717;SDS011;54511;47.532;19.180;2022-10-24T01:13:31;6.30;;;2.65;;
67717;SDS011;54511;47.532;19.180;2022-10-24T01:16:03;4.03;;;2.10;;
67717;SDS011;54511;47.532;19.180;2022-10-24T01:18:33;5.57;;;4.00;;
67717;SDS011;54511;47.532;19.180;2022-10-24T01:21:08;5.55;;;2.65;;
67717;SDS011;54511;47.532;19.180;2022-10-24T01:26:39;6.78;;;3.08;;
67717;SDS011;54511;47.532;19.180;2022-10-24T01:29:35;6.10;;;3.28;;
67717;SDS011;54511;47.532;19.180;2022-10-24T01:32:21;6.12;;;2.67;;
67717;SDS011;54511;47.532;19.180;2022-10-24T01:34:54;3.58;;;2.37;;
67717;SDS011;54511;47.532;19.180;2022-10-24T01:37:24;3.40;;;2.35;;
67717;SDS011;54511;47.532;19.180;2022-10-24T01:39:55;3.40;;;2.80;;
67717;SDS011;54511;47.532;19.180;2022-10-24T01:44:55;6.87;;;3.78;;
67717;SDS011;54511;47.532;19.180;2022-10-24T01:47:23;4.32;;;2.58;;
67717;SDS011;54511;47.532;19.180;2022-10-24T01:49:53;4.72;;;2.65;;
67717;SDS011;54511;47.532;19.180;2022-10-24T01:52:22;7.72;;;3.40;;
67717;SDS011;54511;47.532;19.180;2022-10-24T01:54:50;8.63;;;3.80;;
67717;SDS011;54511;47.532;19.180;2022-10-24T01:57:18;7.55;;;2.83;;
67717;SDS011;54511;47.532;19.180;2022-10-24T01:59:45;6.93;;;3.28;;
67717;SDS011;54511;47.532;19.180;2022-10-24T02:02:18;10.85;;;3.55;;
67717;SDS011;54511;47.532;19.180;2022-10-24T02:04:48;6.22;;;3.30;;
67717;SDS011;54511;47.532;19.180;2022-10-24T02:07:17;4.47;;;2.67;;
67717;SDS011;54511;47.532;19.180;2022-10-24T02:09:45;7.93;;;4.93;;
67717;SDS011;54511;47.532;19.180;2022-10-24T02:12:14;5.68;;;2.87;;
67717;SDS011;54511;47.532;19.180;2022-10-24T02:14:42;6.80;;;4.20;;
67717;SDS011;54511;47.532;19.180;2022-10-24T02:17:12;6.40;;;4.18;;
67717;SDS011;54511;47.532;19.180;2022-10-24T02:19:41;7.30;;;3.30;;
67717;SDS011;54511;47.532;19.180;2022-10-24T02:22:10;6.35;;;3.53;;
67717;SDS011;54511;47.532;19.180;2022-10-24T02:24:40;8.13;;;4.07;;
67717;SDS011;54511;47.532;19.180;2022-10-24T02:27:11;5.07;;;3.37;;
67717;SDS011;54511;47.532;19.180;2022-10-24T02:29:41;5.95;;;3.53;;
67717;SDS011;54511;47.532;19.180;2022-10-24T02:32:10;5.93;;;2.90;;
67717;SDS011;54511;47.532;19.180;2022-10-24T02:34:38;6.70;;;2.87;;
67717;SDS011;54511;47.532;19.180;2022-10-24T02:37:08;7.43;;;3.12;;
67717;SDS011;54511;47.532;19.180;2022-10-24T02:39:35;10.05;;;4.37;;
67717;SDS011;54511;47.532;19.180;2022-10-24T02:42:03;10.55;;;4.07;;
67717;SDS011;54511;47.532;19.180;2022-10-24T02:44:31;6.43;;;3.30;;
67717;SDS011;54511;47.532;19.180;2022-10-24T02:46:59;6.20;;;3.08;;
67717;SDS011;54511;47.532;19.180;2022-10-24T02:49:27;13.55;;;3.65;;
67717;SDS011;54511;47.532;19.180;2022-10-24T02:51:55;6.12;;;3.35;;
67717;SDS011;54511;47.532;19.180;2022-10-24T02:54:22;4.28;;;2.58;;
67717;SDS011;54511;47.532;19.180;2022-10-24T02:56:49;6.47;;;3.22;;
67717;SDS011;54511;47.532;19.180;2022-10-24T02:59:18;6.40;;;4.57;;
67717;SDS011;54511;47.532;19.180;2022-10-24T03:01:45;14.57;;;4.90;;
67717;SDS011;54511;47.532;19.180;2022-10-24T03:04:12;9.60;;;5.35;;
67717;SDS011;54511;47.532;19.180;2022-10-24T03:06:39;9.48;;;3.45;;
67717;SDS011;54511;47.532;19.180;2022-10-24T03:09:07;7.55;;;4.35;;
67717;SDS011;54511;47.532;19.180;2022-10-24T03:11:34;6.25;;;4.60;;
67717;SDS011;54511;47.532;19.180;2022-10-24T03:14:01;7.20;;;4.57;;
67717;SDS011;54511;47.532;19.180;2022-10-24T03:16:28;12.60;;;5.22;;
67717;SDS011;54511;47.532;19.180;2022-10-24T03:18:55;6.93;;;3.75;;
67717;SDS011;54511;47.532;19.180;2022-10-24T03:21:22;7.57;;;3.80;;
67717;SDS011;54511;47.532;19.180;2022-10-24T03:23:49;7.00;;;3.53;;
67717;SDS011;54511;47.532;19.180;2022-10-24T03:26:18;6.80;;;3.20;;
67717;SDS011;54511;47.532;19.180;2022-10-24T03:28:45;11.93;;;4.78;;
67717;SDS011;54511;47.532;19.180;2022-10-24T03:31:12;5.93;;;3.10;;
67717;SDS011;54511;47.532;19.180;2022-10-24T03:33:38;7.50;;;3.60;;
67717;SDS011;54511;47.532;19.180;2022-10-24T03:36:05;5.20;;;2.60;;
67717;SDS011;54511;47.532;19.180;2022-10-24T03:38:33;10.45;;;6.30;;
67717;SDS011;54511;47.532;19.180;2022-10-24T03:40:59;6.00;;;3.03;;
67717;SDS011;54511;47.532;19.180;2022-10-24T03:43:27;10.27;;;4.25;;
67717;SDS011;54511;47.532;19.180;2022-10-24T03:45:54;9.65;;;4.80;;
67717;SDS011;54511;47.532;19.180;2022-10-24T03:48:21;7.50;;;4.22;;
67717;SDS011;54511;47.532;19.180;2022-10-24T03:50:48;15.00;;;5.07;;
67717;SDS011;54511;47.532;19.180;2022-10-24T03:53:16;7.95;;;4.37;;
67717;SDS011;54511;47.532;19.180;2022-10-24T03:55:42;9.23;;;3.50;;
67717;SDS011;54511;47.532;19.180;2022-10-24T03:58:09;10.07;;;4.43;;
67717;SDS011;54511;47.532;19.180;2022-10-24T04:00:39;7.45;;;3.40;;
67717;SDS011;54511;47.532;19.180;2022-10-24T04:03:06;12.88;;;3.12;;
67717;SDS011;54511;47.532;19.180;2022-10-24T04:05:34;8.82;;;4.00;;
67717;SDS011;54511;47.532;19.180;2022-10-24T04:08:01;6.37;;;4.18;;
67717;SDS011;54511;47.532;19.180;2022-10-24T04:10:28;10.88;;;3.50;;
67717;SDS011;54511;47.532;19.180;2022-10-24T04:12:55;6.12;;;4.15;;
67717;SDS011;54511;47.532;19.180;2022-10-24T04:15:22;8.57;;;3.95;;
67717;SDS011;54511;47.532;19.180;2022-10-24T04:17:50;9.45;;;4.53;;
67717;SDS011;54511;47.532;19.180;2022-10-24T04:20:17;10.27;;;4.57;;
67717;SDS011;54511;47.532;19.180;2022-10-24T04:22:46;10.20;;;4.80;;
67717;SDS011;54511;47.532;19.180;2022-10-24T04:25:13;12.00;;;5.15;;
67717;SDS011;54511;47.532;19.180;2022-10-24T04:27:40;9.75;;;4.75;;
67717;SDS011;54511;47.532;19.180;2022-10-24T04:30:08;4.97;;;2.70;;
67717;SDS011;54511;47.532;19.180;2022-10-24T04:32:36;8.98;;;5.45;;
67717;SDS011;54511;47.532;19.180;2022-10-24T04:35:05;10.68;;;4.18;;
67717;SDS011;54511;47.532;19.180;2022-10-24T04:37:32;6.18;;;4.12;;
67717;SDS011;54511;47.532;19.180;2022-10-24T04:39:59;13.43;;;4.12;;
67717;SDS011;54511;47.532;19.180;2022-10-24T04:42:26;9.88;;;4.80;;
67717;SDS011;54511;47.532;19.180;2022-10-24T04:44:53;5.60;;;3.28;;
67717;SDS011;54511;47.532;19.180;2022-10-24T04:47:20;9.32;;;5.70;;
67717;SDS011;54511;47.532;19.180;2022-10-24T04:49:46;5.20;;;3.53;;
67717;SDS011;54511;47.532;19.180;2022-10-24T04:52:15;5.55;;;3.65;;
67717;SDS011;54511;47.532;19.180;2022-10-24T04:54:42;7.97;;;3.72;;
67717;SDS011;54511;47.532;19.180;2022-10-24T04:57:08;6.43;;;3.80;;
67717;SDS011;54511;47.532;19.180;2022-10-24T04:59:35;6.85;;;3.47;;
67717;SDS011;54511;47.532;19.180;2022-10-24T05:02:02;6.30;;;3.62;;
67717;SDS011;54511;47.532;19.180;2022-10-24T05:04:29;8.18;;;3.08;;
67717;SDS011;54511;47.532;19.180;2022-10-24T05:06:56;6.12;;;3.37;;
67717;SDS011;54511;47.532;19.180;2022-10-24T05:09:24;6.07;;;3.87;;
67717;SDS011;54511;47.532;19.180;2022-10-24T05:11:52;7.45;;;3.83;;
67717;SDS011;54511;47.532;19.180;2022-10-24T05:14:20;6.47;;;2.95;;
67717;SDS011;54511;47.532;19.180;2022-10-24T05:16:47;15.52;;;4.60;;
67717;SDS011;54511;47.532;19.180;2022-10-24T05:19:14;11.55;;;4.20;;
67717;SDS011;54511;47.532;19.180;2022-10-24T05:21:41;7.40;;;4.78;;
67717;SDS011;54511;47.532;19.180;2022-10-24T05:24:08;6.00;;;3.22;;
67717;SDS011;54511;47.532;19.180;2022-10-24T05:26:36;9.10;;;3.45;;
67717;SDS011;54511;47.532;19.180;2022-10-24T05:29:03;5.60;;;2.97;;
67717;SDS011;54511;47.532;19.180;2022-10-24T05:31:30;9.27;;;3.70;;
67717;SDS011;54511;47.532;19.180;2022-10-24T05:33:58;5.50;;;3.03;;
67717;SDS011;54511;47.532;19.180;2022-10-24T05:36:24;12.18;;;3.70;;
67717;SDS011;54511;47.532;19.180;2022-10-24T05:38:51;4.57;;;2.67;;
67717;SDS011;54511;47.532;19.180;2022-10-24T05:41:21;7.57;;;3.50;;
67717;SDS011;54511;47.532;19.180;2022-10-24T05:43:50;7.75;;;3.87;;
67717;SDS011;54511;47.532;19.180;2022-10-24T05:46:16;5.75;;;3.58;;
67717;SDS011;54511;47.532;19.180;2022-10-24T05:48:43;5.45;;;3.58;;
67717;SDS011;54511;47.532;19.180;2022-10-24T05:51:10;6.53;;;2.55;;
67717;SDS011;54511;47.532;19.180;2022-10-24T05:53:37;10.10;;;3.55;;
67717;SDS011;54511;47.532;19.180;2022-10-24T05:56:04;7.60;;;3.22;;
67717;SDS011;54511;47.532;19.180;2022-10-24T05:58:31;3.35;;;2.03;;
67717;SDS011;54511;47.532;19.180;2022-10-24T06:01:00;6.18;;;4.55;;
67717;SDS011;54511;47.532;19.180;2022-10-24T06:03:27;5.28;;;1.87;;
67717;SDS011;54511;47.532;19.180;2022-10-24T06:05:54;8.35;;;4.45;;
67717;SDS011;54511;47.532;19.180;2022-10-24T06:08:20;6.93;;;3.62;;
67717;SDS011;54511;47.532;19.180;2022-10-24T06:10:48;8.65;;;4.32;;
67717;SDS011;54511;47.532;19.180;2022-10-24T06:13:16;6.68;;;3.62;;
67717;SDS011;54511;47.532;19.180;2022-10-24T06:15:43;8.93;;;3.03;;
67717;SDS011;54511;47.532;19.180;2022-10-24T06:18:12;8.88;;;3.15;;
67717;SDS011;54511;47.532;19.180;2022-10-24T06:20:39;10.70;;;5.87;;
67717;SDS011;54511;47.532;19.180;2022-10-24T06:23:06;7.87;;;3.67;;
67717;SDS011;54511;47.532;19.180;2022-10-24T06:25:32;4.70;;;2.58;;
67717;SDS011;54511;47.532;19.180;2022-10-24T06:27:59;6.68;;;3.17;;
67717;SDS011;54511;47.532;19.180;2022-10-24T06:30:26;7.50;;;4.32;;
67717;SDS011;54511;47.532;19.180;2022-10-24T06:32:53;6.95;;;3.42;;
67717;SDS011;54511;47.532;19.180;2022-10-24T06:35:21;5.90;;;3.50;;
67717;SDS011;54511;47.532;19.180;2022-10-24T06:37:48;15.93;;;5.03;;
67717;SDS011;54511;47.532;19.180;2022-10-24T06:40:15;5.82;;;3.62;;
67717;SDS011;54511;47.532;19.180;2022-10-24T06:42:42;10.10;;;4.22;;
67717;SDS011;54511;47.532;19.180;2022-10-24T06:45:10;6.47;;;4.25;;
67717;SDS011;54511;47.532;19.180;2022-10-24T06:47:37;7.40;;;3.85;;
67717;SDS011;54511;47.532;19.180;2022-10-24T06:50:04;6.10;;;3.12;;
67717;SDS011;54511;47.532;19.180;2022-10-24T06:52:34;5.10;;;2.92;;
67717;SDS011;54511;47.532;19.180;2022-10-24T06:55:01;8.82;;;4.05;;
67717;SDS011;54511;47.532;19.180;2022-10-24T06:57:29;10.35;;;4.30;;
67717;SDS011;54511;47.532;19.180;2022-10-24T06:59:56;5.30;;;3.58;;
67717;SDS011;54511;47.532;19.180;2022-10-24T07:02:26;7.47;;;3.50;;
67717;SDS011;54511;47.532;19.180;2022-10-24T07:04:53;14.20;;;5.57;;
67717;SDS011;54511;47.532;19.180;2022-10-24T07:07:20;4.85;;;2.95;;
67717;SDS011;54511;47.532;19.180;2022-10-24T07:09:51;8.55;;;5.90;;
67717;SDS011;54511;47.532;19.180;2022-10-24T07:12:19;11.63;;;5.18;;
67717;SDS011;54511;47.532;19.180;2022-10-24T07:14:46;7.85;;;3.03;;
67717;SDS011;54511;47.532;19.180;2022-10-24T07:17:13;6.72;;;3.87;;
67717;SDS011;54511;47.532;19.180;2022-10-24T07:19:40;9.73;;;4.30;;
67717;SDS011;54511;47.532;19.180;2022-10-24T07:22:07;15.00;;;4.87;;
67717;SDS011;54511;47.532;19.180;2022-10-24T07:24:35;8.35;;;4.97;;
67717;SDS011;54511;47.532;19.180;2022-10-24T07:27:04;10.15;;;2.92;;
67717;SDS011;54511;47.532;19.180;2022-10-24T07:29:31;6.28;;;4.03;;
67717;SDS011;54511;47.532;19.180;2022-10-24T07:31:57;7.35;;;3.70;;
67717;SDS011;54511;47.532;19.180;2022-10-24T07:34:26;3.50;;;2.17;;
67717;SDS011;54511;47.532;19.180;2022-10-24T07:36:53;6.68;;;3.28;;
67717;SDS011;54511;47.532;19.180;2022-10-24T07:39:20;5.70;;;2.90;;
67717;SDS011;54511;47.532;19.180;2022-10-24T07:41:47;9.32;;;4.12;;
67717;SDS011;54511;47.532;19.180;2022-10-24T07:44:16;9.02;;;3.22;;
67717;SDS011;54511;47.532;19.180;2022-10-24T07:46:43;5.82;;;3.40;;
67717;SDS011;54511;47.532;19.180;2022-10-24T07:49:09;5.05;;;3.22;;
67717;SDS011;54511;47.532;19.180;2022-10-24T07:51:36;5.15;;;2.60;;
67717;SDS011;54511;47.532;19.180;2022-10-24T07:54:03;5.95;;;3.08;;
67717;SDS011;54511;47.532;19.180;2022-10-24T07:56:30;4.35;;;3.05;;
67717;SDS011;54511;47.532;19.180;2022-10-24T07:58:58;3.42;;;2.37;;
67717;SDS011;54511;47.532;19.180;2022-10-24T08:01:26;5.22;;;2.72;;
67717;SDS011;54511;47.532;19.180;2022-10-24T08:03:55;4.57;;;3.15;;
67717;SDS011;54511;47.532;19.180;2022-10-24T08:06:23;4.87;;;3.42;;
67717;SDS011;54511;47.532;19.180;2022-10-24T08:08:51;3.90;;;2.53;;
67717;SDS011;54511;47.532;19.180;2022-10-24T08:11:19;12.65;;;4.45;;
67717;SDS011;54511;47.532;19.180;2022-10-24T08:13:48;11.75;;;3.50;;
67717;SDS011;54511;47.532;19.180;2022-10-24T08:16:16;3.30;;;2.22;;
67717;SDS011;54511;47.532;19.180;2022-10-24T08:18:47;9.85;;;3.75;;
67717;SDS011;54511;47.532;19.180;2022-10-24T08:21:15;8.82;;;4.12;;
67717;SDS011;54511;47.532;19.180;2022-10-24T08:23:43;9.05;;;3.83;;
67717;SDS011;54511;47.532;19.180;2022-10-24T08:26:12;6.20;;;3.37;;
67717;SDS011;54511;47.532;19.180;2022-10-24T08:28:40;6.30;;;3.53;;
67717;SDS011;54511;47.532;19.180;2022-10-24T08:31:08;8.00;;;2.97;;
67717;SDS011;54511;47.532;19.180;2022-10-24T08:33:37;5.70;;;3.40;;
67717;SDS011;54511;47.532;19.180;2022-10-24T08:36:11;4.90;;;2.72;;
67717;SDS011;54511;47.532;19.180;2022-10-24T08:38:39;9.00;;;3.92;;
67717;SDS011;54511;47.532;19.180;2022-10-24T08:41:08;5.97;;;3.85;;
67717;SDS011;54511;47.532;19.180;2022-10-24T08:43:36;4.07;;;2.20;;
67717;SDS011;54511;47.532;19.180;2022-10-24T08:46:03;5.87;;;3.10;;
67717;SDS011;54511;47.532;19.180;2022-10-24T08:48:41;6.15;;;3.53;;
67717;SDS011;54511;47.532;19.180;2022-10-24T08:51:15;9.23;;;2.70;;
67717;SDS011;54511;47.532;19.180;2022-10-24T08:53:47;6.22;;;3.22;;
67717;SDS011;54511;47.532;19.180;2022-10-24T08:56:15;5.80;;;3.72;;
67717;SDS011;54511;47.532;19.180;2022-10-24T08:58:43;8.05;;;3.20;;
67717;SDS011;54511;47.532;19.180;2022-10-24T09:01:12;7.55;;;3.47;;
67717;SDS011;54511;47.532;19.180;2022-10-24T09:03:43;8.55;;;3.30;;
67717;SDS011;54511;47.532;19.180;2022-10-24T09:06:15;10.05;;;3.15;;
67717;SDS011;54511;47.532;19.180;2022-10-24T09:08:45;9.10;;;3.75;;
67717;SDS011;54511;47.532;19.180;2022-10-24T09:11:18;7.07;;;2.17;;
67717;SDS011;54511;47.532;19.180;2022-10-24T09:13:48;9.10;;;3.35;;
67717;SDS011;54511;47.532;19.180;2022-10-24T09:16:16;7.07;;;4.22;;
67717;SDS011;54511;47.532;19.180;2022-10-24T09:18:46;9.60;;;3.90;;
67717;SDS011;54511;47.532;19.180;2022-10-24T09:21:16;10.75;;;3.87;;
67717;SDS011;54511;47.532;19.180;2022-10-24T09:23:43;3.70;;;2.83;;
67717;SDS011;54511;47.532;19.180;2022-10-24T09:26:12;6.47;;;3.17;;
67717;SDS011;54511;47.532;19.180;2022-10-24T09:28:40;9.07;;;4.00;;
67717;SDS011;54511;47.532;19.180;2022-10-24T09:31:12;8.50;;;3.78;;
67717;SDS011;54511;47.532;19.180;2022-10-24T09:33:43;6.75;;;2.83;;
67717;SDS011;54511;47.532;19.180;2022-10-24T09:36:10;8.20;;;4.45;;
67717;SDS011;54511;47.532;19.180;2022-10-24T09:38:40;5.93;;;3.83;;
67717;SDS011;54511;47.532;19.180;2022-10-24T09:41:13;20.12;;;4.15;;
67717;SDS011;54511;47.532;19.180;2022-10-24T09:43:45;12.18;;;3.97;;
67717;SDS011;54511;47.532;19.180;2022-10-24T09:46:12;6.03;;;2.83;;
67717;SDS011;54511;47.532;19.180;2022-10-24T09:48:44;8.30;;;4.05;;
67717;SDS011;54511;47.532;19.180;2022-10-24T09:51:19;5.93;;;2.95;;
67717;SDS011;54511;47.532;19.180;2022-10-24T09:54:04;6.60;;;3.30;;
67717;SDS011;54511;47.532;19.180;2022-10-24T09:56:35;8.77;;;4.37;;
67717;SDS011;54511;47.532;19.180;2022-10-24T09:59:33;8.18;;;4.55;;
67717;SDS011;54511;47.532;19.180;2022-10-24T10:02:16;9.13;;;2.40;;
67717;SDS011;54511;47.532;19.180;2022-10-24T10:04:45;7.70;;;3.47;;
67717;SDS011;54511;47.532;19.180;2022-10-24T10:07:14;5.18;;;3.15;;
67717;SDS011;54511;47.532;19.180;2022-10-24T10:09:47;7.87;;;4.07;;
67717;SDS011;54511;47.532;19.180;2022-10-24T10:12:25;3.40;;;1.92;;
67717;SDS011;54511;47.532;19.180;2022-10-24T10:14:54;12.10;;;4.00;;
67717;SDS011;54511;47.532;19.180;2022-10-24T10:17:22;8.70;;;3.67;;
67717;SDS011;54511;47.532;19.180;2022-10-24T10:19:50;10.00;;;3.92;;
67717;SDS011;54511;47.532;19.180;2022-10-24T10:22:22;4.68;;;2.72;;
67717;SDS011;54511;47.532;19.180;2022-10-24T10:24:52;6.25;;;3.87;;
67717;SDS011;54511;47.532;19.180;2022-10-24T10:27:28;10.77;;;4.57;;
67717;SDS011;54511;47.532;19.180;2022-10-24T10:32:59;11.00;;;4.37;;
67717;SDS011;54511;47.532;19.180;2022-10-24T10:35:36;15.52;;;3.55;;
67717;SDS011;54511;47.532;19.180;2022-10-24T10:38:10;6.87;;;3.65;;
67717;SDS011;54511;47.532;19.180;2022-10-24T10:40:47;11.32;;;3.22;;
67717;SDS011;54511;47.532;19.180;2022-10-24T10:43:20;10.45;;;4.60;;
67717;SDS011;54511;47.532;19.180;2022-10-24T10:45:55;6.30;;;3.72;;
67717;SDS011;54511;47.532;19.180;2022-10-24T10:48:39;16.30;;;5.72;;
67717;SDS011;54511;47.532;19.180;2022-10-24T10:51:15;9.10;;;4.05;;
67717;SDS011;54511;47.532;19.180;2022-10-24T10:53:47;11.77;;;4.10;;
67717;SDS011;54511;47.532;19.180;2022-10-24T10:56:23;9.48;;;4.28;;
67717;SDS011;54511;47.532;19.180;2022-10-24T10:58:57;8.52;;;4.57;;
67717;SDS011;54511;47.532;19.180;2022-10-24T11:01:32;9.10;;;4.12;;
67717;SDS011;54511;47.532;19.180;2022-10-24T11:04:05;9.68;;;5.30;;
67717;SDS011;54511;47.532;19.180;2022-10-24T11:06:40;16.25;;;5.47;;
67717;SDS011;54511;47.532;19.180;2022-10-24T11:09:30;17.80;;;7.03;;
67717;SDS011;54511;47.532;19.180;2022-10-24T11:14:56;15.10;;;5.37;;
67717;SDS011;54511;47.532;19.180;2022-10-24T11:17:27;12.98;;;7.32;;
67717;SDS011;54511;47.532;19.180;2022-10-24T11:20:02;10.32;;;4.85;;
67717;SDS011;54511;47.532;19.180;2022-10-24T11:22:33;12.63;;;4.30;;
67717;SDS011;54511;47.532;19.180;2022-10-24T11:25:04;10.53;;;3.67;;
67717;SDS011;54511;47.532;19.180;2022-10-24T11:27:42;12.80;;;5.72;;
67717;SDS011;54511;47.532;19.180;2022-10-24T11:30:14;15.85;;;5.60;;
67717;SDS011;54511;47.532;19.180;2022-10-24T11:32:43;7.12;;;4.82;;
67717;SDS011;54511;47.532;19.180;2022-10-24T11:35:16;20.37;;;5.20;;
67717;SDS011;54511;47.532;19.180;2022-10-24T11:37:48;9.60;;;4.70;;
67717;SDS011;54511;47.532;19.180;2022-10-24T11:40:17;11.77;;;4.68;;
67717;SDS011;54511;47.532;19.180;2022-10-24T11:42:49;13.40;;;5.43;;
67717;SDS011;54511;47.532;19.180;2022-10-24T11:45:21;13.50;;;5.70;;
67717;SDS011;54511;47.532;19.180;2022-10-24T11:47:56;15.98;;;5.37;;
67717;SDS011;54511;47.532;19.180;2022-10-24T11:50:31;13.32;;;4.47;;
67717;SDS011;54511;47.532;19.180;2022-10-24T11:53:02;9.95;;;4.50;;
67717;SDS011;54511;47.532;19.180;2022-10-24T11:55:33;9.25;;;4.65;;
67717;SDS011;54511;47.532;19.180;2022-10-24T11:58:04;8.35;;;5.18;;
67717;SDS011;54511;47.532;19.180;2022-10-24T12:00:37;8.95;;;4.30;;
67717;SDS011;54511;47.532;19.180;2022-10-24T12:03:37;7.30;;;3.87;;
67717;SDS011;54511;47.532;19.180;2022-10-24T12:06:30;12.20;;;4.93;;
67717;SDS011;54511;47.532;19.180;2022-10-24T12:09:22;7.95;;;3.97;;
67717;SDS011;54511;47.532;19.180;2022-10-24T12:12:04;10.13;;;4.55;;
67717;SDS011;54511;47.532;19.180;2022-10-24T12:14:45;14.38;;;5.65;;
67717;SDS011;54511;47.532;19.180;2022-10-24T12:17:26;11.05;;;4.40;;
67717;SDS011;54511;47.532;19.180;2022-10-24T12:20:05;12.65;;;5.32;;
67717;SDS011;54511;47.532;19.180;2022-10-24T12:22:34;13.18;;;5.15;;
67717;SDS011;54511;47.532;19.180;2022-10-24T12:25:03;10.07;;;4.62;;
67717;SDS011;54511;47.532;19.180;2022-10-24T12:27:33;8.33;;;5.20;;
67717;SDS011;54511;47.532;19.180;2022-10-24T12:33:26;17.40;;;6.85;;
67717;SDS011;54511;47.532;19.180;2022-10-24T12:35:55;14.35;;;5.82;;
67717;SDS011;54511;47.532;19.180;2022-10-24T12:41:39;9.35;;;5.03;;
67717;SDS011;54511;47.532;19.180;2022-10-24T12:53:30;9.80;;;4.82;;
67717;SDS011;54511;47.532;19.180;2022-10-24T12:58:56;15.25;;;5.60;;
67717;SDS011;54511;47.532;19.180;2022-10-24T13:01:28;10.95;;;5.25;;
67717;SDS011;54511;47.532;19.180;2022-10-24T13:07:17;11.68;;;4.85;;
67717;SDS011;54511;47.532;19.180;2022-10-24T13:10:36;13.20;;;5.22;;
67717;SDS011;54511;47.532;19.180;2022-10-24T13:16:25;12.70;;;5.55;;
67717;SDS011;54511;47.532;19.180;2022-10-24T13:19:02;21.17;;;6.37;;
67717;SDS011;54511;47.532;19.180;2022-10-24T13:21:34;14.82;;;4.97;;
67717;SDS011;54511;47.532;19.180;2022-10-24T13:24:10;13.35;;;5.90;;
67717;SDS011;54511;47.532;19.180;2022-10-24T13:26:41;19.00;;;5.12;;
67717;SDS011;54511;47.532;19.180;2022-10-24T13:29:12;13.52;;;6.12;;
67717;SDS011;54511;47.532;19.180;2022-10-24T13:31:44;8.60;;;4.90;;
67717;SDS011;54511;47.532;19.180;2022-10-24T13:34:20;12.95;;;5.50;;
67717;SDS011;54511;47.532;19.180;2022-10-24T13:36:49;12.30;;;5.40;;
67717;SDS011;54511;47.532;19.180;2022-10-24T13:41:54;9.35;;;4.93;;
67717;SDS011;54511;47.532;19.180;2022-10-24T13:44:24;15.70;;;5.85;;
67717;SDS011;54511;47.532;19.180;2022-10-24T13:46:55;9.68;;;5.62;;
67717;SDS011;54511;47.532;19.180;2022-10-24T13:49:27;15.50;;;6.72;;
67717;SDS011;54511;47.532;19.180;2022-10-24T13:54:27;9.35;;;4.87;;
67717;SDS011;54511;47.532;19.180;2022-10-24T13:56:57;14.68;;;6.65;;
67717;SDS011;54511;47.532;19.180;2022-10-24T13:59:27;18.02;;;5.93;;
67717;SDS011;54511;47.532;19.180;2022-10-24T14:01:56;11.70;;;5.78;;
67717;SDS011;54511;47.532;19.180;2022-10-24T14:04:24;16.62;;;5.20;;
67717;SDS011;54511;47.532;19.180;2022-10-24T14:06:51;12.63;;;4.97;;
67717;SDS011;54511;47.532;19.180;2022-10-24T14:09:18;15.52;;;6.60;;
67717;SDS011;54511;47.532;19.180;2022-10-24T14:11:46;11.23;;;5.62;;
67717;SDS011;54511;47.532;19.180;2022-10-24T14:14:19;15.13;;;6.35;;
67717;SDS011;54511;47.532;19.180;2022-10-24T14:17:03;11.48;;;5.32;;
67717;SDS011;54511;47.532;19.180;2022-10-24T14:19:31;14.38;;;6.03;;
67717;SDS011;54511;47.532;19.180;2022-10-24T14:22:00;10.93;;;5.82;;
67717;SDS011;54511;47.532;19.180;2022-10-24T14:24:29;12.68;;;6.62;;
67717;SDS011;54511;47.532;19.180;2022-10-24T14:26:56;16.75;;;6.57;;
67717;SDS011;54511;47.532;19.180;2022-10-24T14:29:25;16.80;;;5.85;;
67717;SDS011;54511;47.532;19.180;2022-10-24T14:31:55;10.02;;;4.60;;
67717;SDS011;54511;47.532;19.180;2022-10-24T14:34:24;13.98;;;5.87;;
67717;SDS011;54511;47.532;19.180;2022-10-24T14:36:51;17.55;;;6.15;;
67717;SDS011;54511;47.532;19.180;2022-10-24T14:39:18;16.42;;;5.57;;
67717;SDS011;54511;47.532;19.180;2022-10-24T14:41:48;16.65;;;6.25;;
67717;SDS011;54511;47.532;19.180;2022-10-24T14:44:16;12.63;;;5.10;;
67717;SDS011;54511;47.532;19.180;2022-10-24T14:46:46;14.82;;;5.95;;
67717;SDS011;54511;47.532;19.180;2022-10-24T14:49:28;13.82;;;6.03;;
67717;SDS011;54511;47.532;19.180;2022-10-24T14:51:58;10.93;;;5.18;;
67717;SDS011;54511;47.532;19.180;2022-10-24T14:54:28;14.50;;;4.85;;
67717;SDS011;54511;47.532;19.180;2022-10-24T14:56:56;22.48;;;6.93;;
67717;SDS011;54511;47.532;19.180;2022-10-24T14:59:25;12.37;;;4.72;;
67717;SDS011;54511;47.532;19.180;2022-10-24T15:01:56;10.70;;;6.12;;
67717;SDS011;54511;47.532;19.180;2022-10-24T15:04:28;12.68;;;6.15;;
67717;SDS011;54511;47.532;19.180;2022-10-24T15:06:57;16.75;;;5.10;;
67717;SDS011;54511;47.532;19.180;2022-10-24T15:09:24;15.10;;;5.85;;
67717;SDS011;54511;47.532;19.180;2022-10-24T15:11:58;15.55;;;5.60;;
67717;SDS011;54511;47.532;19.180;2022-10-24T15:14:36;8.40;;;4.65;;
67717;SDS011;54511;47.532;19.180;2022-10-24T15:17:16;12.07;;;5.68;;
67717;SDS011;54511;47.532;19.180;2022-10-24T15:19:48;11.07;;;4.50;;
67717;SDS011;54511;47.532;19.180;2022-10-24T15:22:18;12.23;;;5.03;;
67717;SDS011;54511;47.532;19.180;2022-10-24T15:24:50;12.05;;;5.80;;
67717;SDS011;54511;47.532;19.180;2022-10-24T15:27:20;15.52;;;6.25;;
67717;SDS011;54511;47.532;19.180;2022-10-24T15:29:51;10.30;;;5.35;;